createdAt,value
2018-03-27T00:00:01.568Z,1002.37
2018-03-27T00:01:01.547Z,1002.37
2018-03-27T00:02:01.509Z,1002.39
2018-03-27T00:03:01.485Z,1002.34
2018-03-27T00:04:01.465Z,1002.35
2018-03-27T00:05:01.438Z,1002.38
2018-03-27T00:06:01.405Z,1002.33
2018-03-27T00:07:01.374Z,1002.34
2018-03-27T00:08:01.349Z,1002.36
2018-03-27T00:09:01.321Z,1002.35
2018-03-27T00:10:01.362Z,1002.37
2018-03-27T00:11:01.265Z,1002.38
2018-03-27T00:12:01.241Z,1002.31
2018-03-27T00:13:01.215Z,1002.34
2018-03-27T00:14:01.190Z,1002.34
2018-03-27T00:15:01.168Z,1002.33
2018-03-27T00:16:01.141Z,1002.34
2018-03-27T00:17:01.101Z,1002.35
2018-03-27T00:18:01.083Z,1002.34
2018-03-27T00:19:01.043Z,1002.31
2018-03-27T00:20:01.027Z,1002.32
2018-03-27T00:21:01.006Z,1002.30
2018-03-27T00:22:00.977Z,1002.30
2018-03-27T00:23:00.943Z,1002.30
2018-03-27T00:24:00.916Z,1002.34
2018-03-27T00:25:00.893Z,1002.35
2018-03-27T00:26:00.864Z,1002.32
2018-03-27T00:27:00.835Z,1002.35
2018-03-27T00:28:00.814Z,1002.34
2018-03-27T00:29:00.781Z,1002.36
2018-03-27T00:30:00.760Z,1002.35
2018-03-27T00:31:00.729Z,1002.31
2018-03-27T00:32:00.694Z,1002.34
2018-03-27T00:33:00.685Z,1002.33
2018-03-27T00:34:00.649Z,1002.38
2018-03-27T00:35:00.620Z,1002.36
2018-03-27T00:36:00.590Z,1002.36
2018-03-27T00:37:00.564Z,1002.38
2018-03-27T00:38:00.538Z,1002.39
2018-03-27T00:39:00.513Z,1002.40
2018-03-27T00:40:00.483Z,1002.37
2018-03-27T00:41:00.473Z,1002.41
2018-03-27T00:42:00.427Z,1002.40
2018-03-27T00:43:00.406Z,1002.38
2018-03-27T00:44:00.385Z,1002.37
2018-03-27T00:45:00.346Z,1002.36
2018-03-27T00:46:00.322Z,1002.38
2018-03-27T00:47:00.301Z,1002.38
2018-03-27T00:48:00.269Z,1002.35
2018-03-27T00:49:00.253Z,1002.31
2018-03-27T00:50:00.215Z,1002.32
2018-03-27T00:51:00.185Z,1002.30
2018-03-27T00:52:00.161Z,1002.28
2018-03-27T00:53:00.129Z,1002.31
2018-03-27T00:54:00.103Z,1002.28
2018-03-27T00:55:00.080Z,1002.26
2018-03-27T00:56:00.048Z,1002.26
2018-03-27T00:57:00.029Z,1002.29
2018-03-27T00:58:00.013Z,1002.26
2018-03-27T00:58:59.967Z,1002.30
2018-03-27T00:59:59.949Z,1002.30
2018-03-27T01:00:59.914Z,1002.29
2018-03-27T01:01:59.889Z,1002.25
2018-03-27T01:02:59.867Z,1002.26
2018-03-27T01:03:59.829Z,1002.28
2018-03-27T01:04:59.815Z,1002.29
2018-03-27T01:05:59.784Z,1002.28
2018-03-27T01:06:59.752Z,1002.30
2018-03-27T01:07:59.730Z,1002.27
2018-03-27T01:08:59.691Z,1002.35
2018-03-27T01:09:59.674Z,1002.27
2018-03-27T01:10:59.643Z,1002.29
2018-03-27T01:11:59.624Z,1002.29
2018-03-27T01:12:59.588Z,1002.28
2018-03-27T01:13:59.565Z,1002.30
2018-03-27T01:14:59.536Z,1002.23
2018-03-27T01:15:59.506Z,1002.23
2018-03-27T01:16:59.510Z,1002.26
2018-03-27T01:17:59.457Z,1002.21
2018-03-27T01:18:59.427Z,1002.20
2018-03-27T01:19:59.455Z,1002.21
2018-03-27T01:20:59.365Z,1002.26
2018-03-27T01:21:59.349Z,1002.20
2018-03-27T01:22:59.316Z,1002.25
2018-03-27T01:23:59.287Z,1002.26
2018-03-27T01:24:59.284Z,1002.22
2018-03-27T01:25:59.234Z,1002.25
2018-03-27T01:26:59.218Z,1002.22
2018-03-27T01:27:59.179Z,1002.17
2018-03-27T01:28:59.160Z,1002.24
2018-03-27T01:29:59.125Z,1002.18
2018-03-27T01:30:59.106Z,1002.21
2018-03-27T01:31:59.078Z,1002.15
2018-03-27T01:32:59.040Z,1002.18
2018-03-27T01:33:59.018Z,1002.18
2018-03-27T01:34:58.991Z,1002.17
2018-03-27T01:35:58.958Z,1002.15
2018-03-27T01:36:58.943Z,1002.15
2018-03-27T01:37:58.911Z,1002.14
2018-03-27T01:38:58.880Z,1002.14
2018-03-27T01:39:58.854Z,1002.11
2018-03-27T01:40:58.827Z,1002.13
2018-03-27T01:41:58.808Z,1002.14
2018-03-27T01:42:58.773Z,1002.13
2018-03-27T01:43:58.748Z,1002.09
2018-03-27T01:44:58.728Z,1002.11
2018-03-27T01:45:58.691Z,1002.09
2018-03-27T01:46:58.662Z,1002.10
2018-03-27T01:47:58.639Z,1002.15
2018-03-27T01:48:58.608Z,1002.06
2018-03-27T01:49:58.586Z,1002.07
2018-03-27T01:50:58.555Z,1002.05
2018-03-27T01:51:58.533Z,1002.06
2018-03-27T01:52:58.499Z,1002.02
2018-03-27T01:53:58.481Z,1002.04
2018-03-27T01:54:58.447Z,1002.04
2018-03-27T01:55:58.413Z,1002.02
2018-03-27T01:56:58.399Z,1002.03
2018-03-27T01:57:58.366Z,1002.02
2018-03-27T01:58:58.338Z,1002.05
2018-03-27T01:59:58.312Z,1002.02
2018-03-27T02:00:58.288Z,1001.97
2018-03-27T02:01:58.266Z,1001.98
2018-03-27T02:02:58.226Z,1001.94
2018-03-27T02:03:58.203Z,1001.92
2018-03-27T02:04:58.176Z,1001.96
2018-03-27T02:05:58.142Z,1001.98
2018-03-27T02:06:58.128Z,1001.97
2018-03-27T02:07:58.093Z,1001.97
2018-03-27T02:08:58.063Z,1001.92
2018-03-27T02:09:58.031Z,1001.97
2018-03-27T02:10:58.017Z,1001.99
2018-03-27T02:11:57.980Z,1001.98
2018-03-27T02:12:57.960Z,1001.94
2018-03-27T02:13:57.937Z,1001.97
2018-03-27T02:14:57.897Z,1001.94
2018-03-27T02:15:57.895Z,1001.91
2018-03-27T02:16:57.849Z,1001.94
2018-03-27T02:17:57.824Z,1001.93
2018-03-27T02:18:57.788Z,1001.93
2018-03-27T02:19:57.769Z,1001.92
2018-03-27T02:20:57.738Z,1001.90
2018-03-27T02:21:57.711Z,1001.88
2018-03-27T02:22:57.689Z,1001.91
2018-03-27T02:23:57.664Z,1001.91
2018-03-27T02:24:57.634Z,1001.92
2018-03-27T02:25:57.605Z,1001.91
2018-03-27T02:26:57.583Z,1001.88
2018-03-27T02:27:57.552Z,1001.92
2018-03-27T02:28:57.518Z,1001.86
2018-03-27T02:29:57.494Z,1001.86
2018-03-27T02:30:57.467Z,1001.87
2018-03-27T02:31:57.439Z,1001.87
2018-03-27T02:32:57.415Z,1001.89
2018-03-27T02:33:57.382Z,1001.86
2018-03-27T02:34:57.359Z,1001.87
2018-03-27T02:35:57.334Z,1001.87
2018-03-27T02:36:57.308Z,1001.87
2018-03-27T02:37:57.279Z,1001.85
2018-03-27T02:38:57.251Z,1001.85
2018-03-27T02:39:57.219Z,1001.87
2018-03-27T02:40:57.203Z,1001.82
2018-03-27T02:41:57.171Z,1001.89
2018-03-27T02:42:57.137Z,1001.86
2018-03-27T02:43:57.105Z,1001.84
2018-03-27T02:44:57.087Z,1001.82
2018-03-27T02:45:57.102Z,1001.86
2018-03-27T02:46:57.037Z,1001.85
2018-03-27T02:47:57.009Z,1001.78
2018-03-27T02:48:56.971Z,1001.81
2018-03-27T02:49:56.965Z,1001.79
2018-03-27T02:50:56.942Z,1001.81
2018-03-27T02:51:56.888Z,1001.80
2018-03-27T02:52:56.869Z,1001.82
2018-03-27T02:53:56.835Z,1001.80
2018-03-27T02:54:56.820Z,1001.85
2018-03-27T02:55:56.791Z,1001.81
2018-03-27T02:56:56.752Z,1001.80
2018-03-27T02:57:56.727Z,1001.84
2018-03-27T02:58:56.701Z,1001.76
2018-03-27T02:59:56.677Z,1001.79
2018-03-27T03:00:56.647Z,1001.80
2018-03-27T03:01:56.623Z,1001.80
2018-03-27T03:02:56.591Z,1001.82
2018-03-27T03:03:56.569Z,1001.79
2018-03-27T03:04:56.541Z,1001.79
2018-03-27T03:05:56.513Z,1001.78
2018-03-27T03:06:56.482Z,1001.81
2018-03-27T03:07:56.462Z,1001.81
2018-03-27T03:08:56.428Z,1001.81
2018-03-27T03:09:56.397Z,1001.81
2018-03-27T03:10:56.375Z,1001.79
2018-03-27T03:11:56.349Z,1001.79
2018-03-27T03:12:56.317Z,1001.81
2018-03-27T03:13:56.294Z,1001.78
2018-03-27T03:14:56.274Z,1001.77
2018-03-27T03:15:56.236Z,1001.78
2018-03-27T03:16:56.211Z,1001.74
2018-03-27T03:17:56.176Z,1001.77
2018-03-27T03:18:56.156Z,1001.73
2018-03-27T03:19:56.132Z,1001.72
2018-03-27T03:20:56.096Z,1001.70
2018-03-27T03:21:56.081Z,1001.70
2018-03-27T03:22:56.041Z,1001.75
2018-03-27T03:23:56.020Z,1001.71
2018-03-27T03:24:55.989Z,1001.71
2018-03-27T03:25:55.963Z,1001.71
2018-03-27T03:26:55.941Z,1001.73
2018-03-27T03:27:55.934Z,1001.71
2018-03-27T03:28:55.877Z,1001.73
2018-03-27T03:29:55.842Z,1001.76
2018-03-27T03:30:55.824Z,1001.73
2018-03-27T03:31:55.793Z,1001.74
2018-03-27T03:32:55.762Z,1001.72
2018-03-27T03:33:55.747Z,1001.73
2018-03-27T03:34:55.714Z,1001.73
2018-03-27T03:35:55.684Z,1001.73
2018-03-27T03:36:55.666Z,1001.71
2018-03-27T03:37:55.633Z,1001.75
2018-03-27T03:38:55.606Z,1001.76
2018-03-27T03:39:55.586Z,1001.72
2018-03-27T03:40:55.550Z,1001.71
2018-03-27T03:41:55.527Z,1001.71
2018-03-27T03:42:55.500Z,1001.73
2018-03-27T03:43:55.469Z,1001.66
2018-03-27T03:44:55.438Z,1001.73
2018-03-27T03:45:55.421Z,1001.72
2018-03-27T03:46:55.391Z,1001.71
2018-03-27T03:47:55.362Z,1001.65
2018-03-27T03:48:55.326Z,1001.71
2018-03-27T03:49:55.302Z,1001.68
2018-03-27T03:50:55.280Z,1001.71
2018-03-27T03:51:55.258Z,1001.71
2018-03-27T03:52:55.219Z,1001.67
2018-03-27T03:53:55.201Z,1001.72
2018-03-27T03:54:55.163Z,1001.71
2018-03-27T03:55:55.140Z,1001.68
2018-03-27T03:56:55.118Z,1001.71
2018-03-27T03:57:55.082Z,1001.77
2018-03-27T03:58:55.067Z,1001.72
2018-03-27T03:59:55.035Z,1001.73
2018-03-27T04:00:55.000Z,1001.76
2018-03-27T04:01:54.970Z,1001.77
2018-03-27T04:02:54.952Z,1001.76
2018-03-27T04:03:54.926Z,1001.77
2018-03-27T04:04:54.891Z,1001.76
2018-03-27T04:05:54.867Z,1001.74
2018-03-27T04:06:54.833Z,1001.76
2018-03-27T04:07:54.809Z,1001.74
2018-03-27T04:08:54.779Z,1001.72
2018-03-27T04:09:54.794Z,1001.71
2018-03-27T04:10:54.726Z,1001.73
2018-03-27T04:11:54.704Z,1001.72
2018-03-27T04:12:54.677Z,1001.74
2018-03-27T04:13:54.645Z,1001.77
2018-03-27T04:14:54.623Z,1001.77
2018-03-27T04:15:54.592Z,1001.77
2018-03-27T04:16:54.556Z,1001.74
2018-03-27T04:17:54.533Z,1001.72
2018-03-27T04:18:54.508Z,1001.66
2018-03-27T04:19:54.500Z,1001.68
2018-03-27T04:20:54.468Z,1001.68
2018-03-27T04:21:54.424Z,1001.64
2018-03-27T04:22:54.396Z,1001.67
2018-03-27T04:23:54.375Z,1001.64
2018-03-27T04:24:54.354Z,1001.66
2018-03-27T04:25:54.317Z,1001.66
2018-03-27T04:26:54.283Z,1001.60
2018-03-27T04:27:54.264Z,1001.60
2018-03-27T04:28:54.229Z,1001.59
2018-03-27T04:29:54.204Z,1001.62
2018-03-27T04:30:54.184Z,1001.59
2018-03-27T04:31:54.158Z,1001.61
2018-03-27T04:32:54.125Z,1001.55
2018-03-27T04:33:54.095Z,1001.60
2018-03-27T04:34:54.066Z,1001.62
2018-03-27T04:35:54.053Z,1001.55
2018-03-27T04:36:54.013Z,1001.54
2018-03-27T04:37:53.983Z,1001.53
2018-03-27T04:38:53.962Z,1001.52
2018-03-27T04:39:53.929Z,1001.48
2018-03-27T04:40:53.905Z,1001.50
2018-03-27T04:41:53.875Z,1001.46
2018-03-27T04:42:53.847Z,1001.42
2018-03-27T04:43:53.826Z,1001.43
2018-03-27T04:44:53.790Z,1001.46
2018-03-27T04:45:53.766Z,1001.49
2018-03-27T04:46:53.743Z,1001.45
2018-03-27T04:47:53.737Z,1001.48
2018-03-27T04:48:53.683Z,1001.44
2018-03-27T04:49:53.661Z,1001.41
2018-03-27T04:50:53.633Z,1001.44
2018-03-27T04:51:53.599Z,1001.42
2018-03-27T04:52:53.581Z,1001.40
2018-03-27T04:53:53.552Z,1001.43
2018-03-27T04:54:53.518Z,1001.41
2018-03-27T04:55:53.499Z,1001.39
2018-03-27T04:56:53.461Z,1001.37
2018-03-27T04:57:53.446Z,1001.40
2018-03-27T04:58:53.407Z,1001.39
2018-03-27T04:59:53.381Z,1001.41
2018-03-27T05:00:53.364Z,1001.37
2018-03-27T05:01:53.327Z,1001.41
2018-03-27T05:02:53.306Z,1001.39
2018-03-27T05:03:53.289Z,1001.40
2018-03-27T05:04:53.255Z,1001.36
2018-03-27T05:05:53.220Z,1001.39
2018-03-27T05:06:53.198Z,1001.38
2018-03-27T05:07:53.169Z,1001.35
2018-03-27T05:08:53.145Z,1001.33
2018-03-27T05:09:53.106Z,1001.38
2018-03-27T05:10:53.085Z,1001.35
2018-03-27T05:11:53.084Z,1001.34
2018-03-27T05:12:53.033Z,1001.31
2018-03-27T05:13:52.998Z,1001.29
2018-03-27T05:14:52.974Z,1001.23
2018-03-27T05:15:52.946Z,1001.22
2018-03-27T05:16:52.913Z,1001.23
2018-03-27T05:17:52.894Z,1001.24
2018-03-27T05:18:52.861Z,1001.25
2018-03-27T05:19:52.837Z,1001.23
2018-03-27T05:20:52.814Z,1001.25
2018-03-27T05:21:52.780Z,1001.26
2018-03-27T05:22:52.754Z,1001.22
2018-03-27T05:23:52.731Z,1001.26
2018-03-27T05:24:52.697Z,1001.20
2018-03-27T05:25:52.677Z,1001.19
2018-03-27T05:26:52.653Z,1001.22
2018-03-27T05:27:52.612Z,1001.21
2018-03-27T05:28:52.589Z,1001.19
2018-03-27T05:29:52.569Z,1001.15
2018-03-27T05:30:52.528Z,1001.15
2018-03-27T05:31:52.509Z,1001.13
2018-03-27T05:32:52.512Z,1001.17
2018-03-27T05:33:52.443Z,1001.13
2018-03-27T05:34:52.427Z,1001.17
2018-03-27T05:35:52.392Z,1001.16
2018-03-27T05:36:52.376Z,1001.17
2018-03-27T05:37:52.349Z,1001.13
2018-03-27T05:38:52.313Z,1001.16
2018-03-27T05:39:52.288Z,1001.20
2018-03-27T05:40:52.258Z,1001.18
2018-03-27T05:41:52.228Z,1001.19
2018-03-27T05:42:52.207Z,1001.19
2018-03-27T05:43:52.172Z,1001.18
2018-03-27T05:44:52.149Z,1001.19
2018-03-27T05:45:52.120Z,1001.18
2018-03-27T05:46:52.095Z,1001.20
2018-03-27T05:47:52.077Z,1001.16
2018-03-27T05:48:52.046Z,1001.16
2018-03-27T05:49:52.013Z,1001.16
2018-03-27T05:50:51.988Z,1001.16
2018-03-27T05:51:51.989Z,1001.18
2018-03-27T05:52:51.932Z,1001.15
2018-03-27T05:53:51.903Z,1001.19
2018-03-27T05:54:51.883Z,1001.20
2018-03-27T05:55:51.869Z,1001.15
2018-03-27T05:56:51.821Z,1001.19
2018-03-27T05:57:51.792Z,1001.17
2018-03-27T05:58:51.771Z,1001.17
2018-03-27T05:59:51.742Z,1001.12
2018-03-27T06:00:51.704Z,1001.10
2018-03-27T06:01:51.687Z,1001.14
2018-03-27T06:02:51.652Z,1001.13
2018-03-27T06:03:51.625Z,1001.11
2018-03-27T06:04:51.605Z,1001.14
2018-03-27T06:05:51.567Z,1001.12
2018-03-27T06:06:51.549Z,1001.10
2018-03-27T06:07:51.522Z,1001.10
2018-03-27T06:08:51.491Z,1001.10
2018-03-27T06:09:51.457Z,1001.10
2018-03-27T06:10:51.434Z,1001.09
2018-03-27T06:11:51.417Z,1001.11
2018-03-27T06:12:51.385Z,1001.08
2018-03-27T06:13:51.358Z,1001.06
2018-03-27T06:14:51.326Z,1001.10
2018-03-27T06:15:51.299Z,1001.08
2018-03-27T06:16:51.277Z,1001.10
2018-03-27T06:17:51.251Z,1001.07
2018-03-27T06:18:51.219Z,1001.07
2018-03-27T06:19:51.192Z,1001.03
2018-03-27T06:20:51.156Z,1001.03
2018-03-27T06:21:51.136Z,1001.03
2018-03-27T06:22:51.106Z,1001.03
2018-03-27T06:23:51.078Z,1000.99
2018-03-27T06:24:51.054Z,1001.07
2018-03-27T06:25:51.055Z,1000.97
2018-03-27T06:26:51.000Z,1000.97
2018-03-27T06:27:50.971Z,1000.96
2018-03-27T06:28:50.943Z,1000.95
2018-03-27T06:29:50.916Z,1000.98
2018-03-27T06:30:50.892Z,1000.93
2018-03-27T06:31:50.866Z,1000.96
2018-03-27T06:32:50.827Z,1000.93
2018-03-27T06:33:50.850Z,1000.93
2018-03-27T06:34:50.779Z,1000.94
2018-03-27T06:35:50.749Z,1000.92
2018-03-27T06:36:50.726Z,1000.93
2018-03-27T06:37:50.702Z,1000.90
2018-03-27T06:38:50.666Z,1000.92
2018-03-27T06:39:50.642Z,1000.92
2018-03-27T06:40:50.619Z,1000.89
2018-03-27T06:41:50.586Z,1000.96
2018-03-27T06:42:50.561Z,1000.91
2018-03-27T06:43:50.533Z,1000.90
2018-03-27T06:44:50.499Z,1000.90
2018-03-27T06:45:50.487Z,1000.90
2018-03-27T06:46:50.451Z,1000.87
2018-03-27T06:47:50.480Z,1000.92
2018-03-27T06:48:50.405Z,1000.90
2018-03-27T06:49:50.375Z,1000.88
2018-03-27T06:50:50.340Z,1000.86
2018-03-27T06:51:50.324Z,1000.85
2018-03-27T06:52:50.296Z,1000.85
2018-03-27T06:53:50.258Z,1000.82
2018-03-27T06:54:50.235Z,1000.84
2018-03-27T06:55:50.211Z,1000.82
2018-03-27T06:56:50.185Z,1000.77
2018-03-27T06:57:50.168Z,1000.78
2018-03-27T06:58:50.119Z,1000.76
2018-03-27T06:59:50.102Z,1000.76
2018-03-27T07:00:50.084Z,1000.73
2018-03-27T07:01:50.060Z,1000.75
2018-03-27T07:02:50.054Z,1000.74
2018-03-27T07:03:49.999Z,1000.74
2018-03-27T07:04:49.972Z,1000.71
2018-03-27T07:05:49.938Z,1000.68
2018-03-27T07:06:49.929Z,1000.68
2018-03-27T07:07:49.877Z,1000.71
2018-03-27T07:08:49.862Z,1000.69
2018-03-27T07:09:49.828Z,1000.64
2018-03-27T07:10:49.814Z,1000.68
2018-03-27T07:11:49.774Z,1000.63
2018-03-27T07:12:49.749Z,1000.60
2018-03-27T07:13:49.728Z,1000.59
2018-03-27T07:14:49.724Z,1000.58
2018-03-27T07:15:49.704Z,1000.57
2018-03-27T07:16:49.641Z,1000.57
2018-03-27T07:17:49.655Z,1000.55
2018-03-27T07:18:49.578Z,1000.55
2018-03-27T07:19:49.560Z,1000.57
2018-03-27T07:20:49.532Z,1000.54
2018-03-27T07:21:49.496Z,1000.57
2018-03-27T07:22:49.477Z,1000.51
2018-03-27T07:23:49.445Z,1000.49
2018-03-27T07:24:49.424Z,1000.46
2018-03-27T07:25:49.394Z,1000.48
2018-03-27T07:26:49.363Z,1000.51
2018-03-27T07:27:49.343Z,1000.48
2018-03-27T07:28:49.311Z,1000.49
2018-03-27T07:29:49.293Z,1000.44
2018-03-27T07:30:49.253Z,1000.47
2018-03-27T07:31:49.238Z,1000.41
2018-03-27T07:32:49.202Z,1000.44
2018-03-27T07:33:49.180Z,1000.42
2018-03-27T07:34:49.153Z,1000.43
2018-03-27T07:35:49.125Z,1000.46
2018-03-27T07:36:49.098Z,1000.49
2018-03-27T07:37:49.066Z,1000.43
2018-03-27T07:38:49.042Z,1000.44
2018-03-27T07:39:49.017Z,1000.47
2018-03-27T07:40:48.990Z,1000.43
2018-03-27T07:41:48.966Z,1000.40
2018-03-27T07:42:48.935Z,1000.43
2018-03-27T07:43:48.901Z,1000.42
2018-03-27T07:44:48.880Z,1000.43
2018-03-27T07:45:48.864Z,1000.42
2018-03-27T07:46:48.826Z,1000.41
2018-03-27T07:47:48.820Z,1000.43
2018-03-27T07:48:48.773Z,1000.39
2018-03-27T07:49:48.744Z,1000.40
2018-03-27T07:50:48.785Z,1000.38
2018-03-27T07:51:48.698Z,1000.34
2018-03-27T07:52:48.665Z,1000.31
2018-03-27T07:53:48.652Z,1000.33
2018-03-27T07:54:48.615Z,1000.29
2018-03-27T07:55:48.624Z,1000.31
2018-03-27T07:56:48.562Z,1000.29
2018-03-27T07:57:48.541Z,1000.26
2018-03-27T07:58:48.498Z,1000.24
2018-03-27T07:59:48.476Z,1000.24
2018-03-27T08:00:48.455Z,1000.23
2018-03-27T08:01:48.445Z,1000.24
2018-03-27T08:02:48.396Z,1000.16
2018-03-27T08:03:48.370Z,1000.15
2018-03-27T08:04:48.482Z,1000.13
2018-03-27T08:05:48.322Z,1000.08
2018-03-27T08:06:48.299Z,1000.09
2018-03-27T08:07:48.275Z,1000.03
2018-03-27T08:08:48.330Z,1000.04
2018-03-27T08:09:48.206Z,1000.00
2018-03-27T08:10:48.188Z,1000.02
2018-03-27T08:11:48.170Z,999.99
2018-03-27T08:12:48.147Z,999.97
2018-03-27T08:13:48.118Z,999.93
2018-03-27T08:14:48.093Z,999.91
2018-03-27T08:15:48.109Z,999.95
2018-03-27T08:16:48.027Z,999.90
2018-03-27T08:17:47.996Z,999.90
2018-03-27T08:18:47.984Z,999.88
2018-03-27T08:19:47.949Z,999.91
2018-03-27T08:20:47.938Z,999.89
2018-03-27T08:21:47.918Z,999.86
2018-03-27T08:22:47.859Z,999.90
2018-03-27T08:23:47.828Z,999.85
2018-03-27T08:24:47.814Z,999.82
2018-03-27T08:25:47.786Z,999.81
2018-03-27T08:26:47.755Z,999.80
2018-03-27T08:27:47.730Z,999.81
2018-03-27T08:28:47.691Z,999.81
2018-03-27T08:29:47.681Z,999.79
2018-03-27T08:30:47.646Z,999.82
2018-03-27T08:31:47.619Z,999.75
2018-03-27T08:32:47.594Z,999.77
2018-03-27T08:33:47.569Z,999.78
2018-03-27T08:34:47.536Z,999.74
2018-03-27T08:35:47.519Z,999.72
2018-03-27T08:36:47.490Z,999.76
2018-03-27T08:37:47.464Z,999.73
2018-03-27T08:38:47.438Z,999.71
2018-03-27T08:39:47.409Z,999.68
2018-03-27T08:40:47.385Z,999.67
2018-03-27T08:41:47.362Z,999.65
2018-03-27T08:42:47.325Z,999.66
2018-03-27T08:43:47.302Z,999.65
2018-03-27T08:44:47.277Z,999.69
2018-03-27T08:45:47.257Z,999.61
2018-03-27T08:46:47.222Z,999.62
2018-03-27T08:47:47.197Z,999.61
2018-03-27T08:48:47.171Z,999.60
2018-03-27T08:49:47.141Z,999.63
2018-03-27T08:50:47.123Z,999.60
2018-03-27T08:51:47.094Z,999.56
2018-03-27T08:52:47.061Z,999.55
2018-03-27T08:53:47.057Z,999.53
2018-03-27T08:54:47.058Z,999.52
2018-03-27T08:55:46.975Z,999.58
2018-03-27T08:56:46.965Z,999.58
2018-03-27T08:57:46.927Z,999.56
2018-03-27T08:58:46.910Z,999.51
2018-03-27T08:59:46.938Z,999.60
2018-03-27T09:00:46.846Z,999.56
2018-03-27T09:01:46.831Z,999.57
2018-03-27T09:02:46.792Z,999.55
2018-03-27T09:03:46.776Z,999.58
2018-03-27T09:04:46.745Z,999.59
2018-03-27T09:05:46.724Z,999.54
2018-03-27T09:06:46.690Z,999.58
2018-03-27T09:07:46.665Z,999.54
2018-03-27T09:08:46.646Z,999.53
2018-03-27T09:09:46.614Z,999.50
2018-03-27T09:10:46.582Z,999.46
2018-03-27T09:11:46.557Z,999.45
2018-03-27T09:12:46.540Z,999.45
2018-03-27T09:13:46.504Z,999.44
2018-03-27T09:14:46.489Z,999.38
2018-03-27T09:15:46.458Z,999.40
2018-03-27T09:16:46.427Z,999.37
2018-03-27T09:17:46.421Z,999.38
2018-03-27T09:18:46.377Z,999.39
2018-03-27T09:19:46.347Z,999.37
2018-03-27T09:20:46.324Z,999.33
2018-03-27T09:21:46.289Z,999.35
2018-03-27T09:22:46.277Z,999.33
2018-03-27T09:23:46.247Z,999.35
2018-03-27T09:24:46.216Z,999.31
2018-03-27T09:25:46.194Z,999.33
2018-03-27T09:26:46.167Z,999.33
2018-03-27T09:27:46.141Z,999.34
2018-03-27T09:28:46.115Z,999.34
2018-03-27T09:29:46.087Z,999.36
2018-03-27T09:30:46.069Z,999.35
2018-03-27T09:31:46.033Z,999.36
2018-03-27T09:32:46.012Z,999.31
2018-03-27T09:33:45.984Z,999.31
2018-03-27T09:34:45.947Z,999.30
2018-03-27T09:35:45.931Z,999.30
2018-03-27T09:36:45.906Z,999.28
2018-03-27T09:37:45.881Z,999.29
2018-03-27T09:38:45.849Z,999.25
2018-03-27T09:39:45.830Z,999.27
2018-03-27T09:40:45.797Z,999.21
2018-03-27T09:41:45.772Z,999.29
2018-03-27T09:42:45.746Z,999.24
2018-03-27T09:43:45.720Z,999.19
2018-03-27T09:44:45.733Z,999.20
2018-03-27T09:45:45.668Z,999.17
2018-03-27T09:46:45.657Z,999.22
2018-03-27T09:47:45.630Z,999.23
2018-03-27T09:48:45.598Z,999.20
2018-03-27T09:49:45.570Z,999.21
2018-03-27T09:50:45.537Z,999.17
2018-03-27T09:51:45.525Z,999.19
2018-03-27T09:52:45.491Z,999.12
2018-03-27T09:53:45.472Z,999.14
2018-03-27T09:54:45.436Z,999.12
2018-03-27T09:55:45.421Z,999.13
2018-03-27T09:56:45.385Z,999.08
2018-03-27T09:57:45.361Z,999.08
2018-03-27T09:58:45.362Z,999.08
2018-03-27T09:59:45.319Z,999.10
2018-03-27T10:00:45.287Z,999.12
2018-03-27T10:01:45.266Z,999.12
2018-03-27T10:02:45.240Z,999.09
2018-03-27T10:03:45.212Z,999.06
2018-03-27T10:04:45.194Z,999.06
2018-03-27T10:05:45.163Z,999.02
2018-03-27T10:06:45.138Z,998.99
2018-03-27T10:07:45.112Z,998.92
2018-03-27T10:08:45.091Z,998.94
2018-03-27T10:09:45.068Z,998.94
2018-03-27T10:10:45.045Z,998.91
2018-03-27T10:11:45.007Z,998.94
2018-03-27T10:12:44.988Z,998.94
2018-03-27T10:13:44.989Z,998.90
2018-03-27T10:14:44.936Z,998.87
2018-03-27T10:15:44.937Z,998.83
2018-03-27T10:16:44.885Z,998.76
2018-03-27T10:17:44.880Z,998.71
2018-03-27T10:18:44.854Z,998.79
2018-03-27T10:19:44.822Z,998.79
2018-03-27T10:20:44.797Z,998.82
2018-03-27T10:21:44.769Z,998.85
2018-03-27T10:22:44.742Z,998.82
2018-03-27T10:23:44.728Z,998.81
2018-03-27T10:24:44.699Z,998.83
2018-03-27T10:25:44.669Z,998.76
2018-03-27T10:26:44.651Z,998.84
2018-03-27T10:27:44.618Z,998.79
2018-03-27T10:28:44.601Z,998.81
2018-03-27T10:29:44.579Z,998.76
2018-03-27T10:30:44.550Z,998.81
2018-03-27T10:31:44.530Z,998.65
2018-03-27T10:32:44.507Z,998.66
2018-03-27T10:33:44.478Z,998.64
2018-03-27T10:34:44.454Z,998.72
2018-03-27T10:35:44.435Z,998.64
2018-03-27T10:36:44.399Z,998.64
2018-03-27T10:37:44.382Z,998.68
2018-03-27T10:38:44.352Z,998.67
2018-03-27T10:39:44.324Z,998.63
2018-03-27T10:40:44.307Z,998.58
2018-03-27T10:41:44.282Z,998.57
2018-03-27T10:42:44.255Z,998.56
2018-03-27T10:43:44.236Z,998.51
2018-03-27T10:44:44.208Z,998.46
2018-03-27T10:45:44.183Z,998.48
2018-03-27T10:46:44.162Z,998.48
2018-03-27T10:47:44.135Z,998.49
2018-03-27T10:48:44.112Z,998.50
2018-03-27T10:49:44.081Z,998.52
2018-03-27T10:50:44.066Z,998.49
2018-03-27T10:51:44.036Z,998.41
2018-03-27T10:52:44.014Z,998.36
2018-03-27T10:53:43.997Z,998.35
2018-03-27T10:54:43.964Z,998.33
2018-03-27T10:55:44.003Z,998.26
2018-03-27T10:56:43.913Z,998.29
2018-03-27T10:57:43.894Z,998.27
2018-03-27T10:58:43.941Z,998.27
2018-03-27T10:59:43.843Z,998.23
2018-03-27T11:00:43.823Z,998.29
2018-03-27T11:01:43.794Z,998.23
2018-03-27T11:02:43.772Z,998.23
2018-03-27T11:03:43.754Z,998.19
2018-03-27T11:04:43.719Z,998.21
2018-03-27T11:05:43.699Z,998.15
2018-03-27T11:06:43.671Z,998.21
2018-03-27T11:07:43.648Z,998.21
2018-03-27T11:08:43.619Z,998.14
2018-03-27T11:09:43.597Z,998.14
2018-03-27T11:10:43.579Z,998.14
2018-03-27T11:11:43.548Z,998.10
2018-03-27T11:12:43.528Z,998.13
2018-03-27T11:13:43.500Z,998.05
2018-03-27T11:14:43.471Z,997.92
2018-03-27T11:15:43.456Z,997.97
2018-03-27T11:16:43.425Z,997.93
2018-03-27T11:17:43.407Z,997.99
2018-03-27T11:18:43.377Z,997.96
2018-03-27T11:19:43.347Z,997.91
2018-03-27T11:20:43.329Z,997.93
2018-03-27T11:21:43.303Z,997.87
2018-03-27T11:22:43.284Z,997.81
2018-03-27T11:23:43.257Z,997.85
2018-03-27T11:24:43.226Z,997.80
2018-03-27T11:25:43.213Z,997.79
2018-03-27T11:26:43.183Z,997.75
2018-03-27T11:27:43.169Z,997.76
2018-03-27T11:28:43.127Z,997.75
2018-03-27T11:29:43.108Z,997.68
2018-03-27T11:30:43.086Z,997.70
2018-03-27T11:31:43.063Z,997.70
2018-03-27T11:32:43.035Z,997.60
2018-03-27T11:33:43.016Z,997.61
2018-03-27T11:34:42.995Z,997.59
2018-03-27T11:35:42.971Z,997.58
2018-03-27T11:36:42.936Z,997.57
2018-03-27T11:37:42.916Z,997.60
2018-03-27T11:38:42.894Z,997.59
2018-03-27T11:39:42.862Z,997.59
2018-03-27T11:40:42.848Z,997.54
2018-03-27T11:41:42.822Z,997.51
2018-03-27T11:42:42.797Z,997.45
2018-03-27T11:43:42.771Z,997.44
2018-03-27T11:44:42.758Z,997.45
2018-03-27T11:45:42.717Z,997.41
2018-03-27T11:46:42.703Z,997.40
2018-03-27T11:47:42.674Z,997.39
2018-03-27T11:48:42.653Z,997.33
2018-03-27T11:49:42.633Z,997.37
2018-03-27T11:50:42.608Z,997.37
2018-03-27T11:51:42.580Z,997.35
2018-03-27T11:52:42.553Z,997.36
2018-03-27T11:53:42.536Z,997.37
2018-03-27T11:54:42.509Z,997.33
2018-03-27T11:55:42.488Z,997.34
2018-03-27T11:56:42.464Z,997.35
2018-03-27T11:57:42.441Z,997.35
2018-03-27T11:58:42.417Z,997.29
2018-03-27T11:59:42.393Z,997.29
2018-03-27T12:00:42.365Z,997.21
2018-03-27T12:01:42.342Z,997.23
2018-03-27T12:02:42.325Z,997.18
2018-03-27T12:03:42.295Z,997.16
2018-03-27T12:04:42.280Z,997.16
2018-03-27T12:05:42.248Z,997.13
2018-03-27T12:06:42.229Z,997.11
2018-03-27T12:07:42.206Z,997.06
2018-03-27T12:08:42.172Z,997.05
2018-03-27T12:09:42.151Z,997.07
2018-03-27T12:10:42.135Z,997.01
2018-03-27T12:11:42.116Z,997.03
2018-03-27T12:12:42.088Z,997.03